»·PEaware :: N1718G KFMN-KABQ

N1718G :: KFMN-KABQ

FLIGHT INFORMATION

Flight Status: Arrived
Operator: Privately registered:
United States
More flights under this callsign
Pilot: Spencer M. (27733)
Aircraft: BEECH AIRCRAFT BARON
(BE58)
More flights by this aircraft type
Origin: KFMN Four Corners Regl
United States
Destination: KABQ Albuquerque Intl Sunport
United States
More flights between these airports :: More routes between these airports
Route: +CHACO1 CHACO TANER V187 ABQ
File this flight plan on PilotEdge
Remarks:
Altitude:
(Current/Filed)
11,000ft
Speed:
(Current/Filed)
160kts
Departed: 21-Jun-20 07:28 PM
Arrived: 21-Jun-20 08:17 PM
Distance/Time
Traveled:
129nm/0:49
Distance/Time
To Go:
Arrived

Flight Plot

Page will automatically refresh every two minutes.

Flight plan parsing failed; only flown route is shown


Map Options




Map Legend


Flown Route
Filed Route
Departure Airport
Arrival Airport
Navaid (VOR, NDB)
Fix

Horizontal Profiles

Position Reports

Time Latitude Longitude Heading Altitude Ground
Speed
21-Jun-20 19:05 36.739913 -108.226315 90 5506ft 0kts
21-Jun-20 19:06 36.739913 -108.226315 90 5506ft 0kts
21-Jun-20 19:07 36.739913 -108.226315 90 5506ft 0kts
21-Jun-20 19:08 36.739913 -108.226315 90 5506ft 0kts
21-Jun-20 19:09 36.739913 -108.226315 90 5506ft 0kts
21-Jun-20 19:10 36.739913 -108.226315 90 5506ft 0kts
21-Jun-20 19:11 36.739913 -108.226315 90 5506ft 0kts
21-Jun-20 19:12 36.739913 -108.226315 90 5506ft 0kts
21-Jun-20 19:13 36.739913 -108.226315 90 5506ft 0kts
21-Jun-20 19:14 36.739913 -108.226315 90 5506ft 0kts
21-Jun-20 19:15 36.739913 -108.226315 90 5506ft 0kts
21-Jun-20 19:16 36.739913 -108.226315 90 5506ft 0kts
21-Jun-20 19:17 36.739913 -108.226315 90 5506ft 0kts
21-Jun-20 19:18 36.739913 -108.226315 90 5506ft 0kts
21-Jun-20 19:19 36.739913 -108.226315 90 5506ft 0kts
21-Jun-20 19:20 36.740277 -108.225420 84 5506ft 6kts
21-Jun-20 19:21 36.740315 -108.223054 91 5506ft 6kts
21-Jun-20 19:22 36.740751 -108.221134 88 5506ft 9kts
21-Jun-20 19:23 36.740807 -108.218684 90 5506ft 3kts
21-Jun-20 19:24 36.740809 -108.218506 87 5506ft 0kts
21-Jun-20 19:25 36.740809 -108.218506 87 5506ft 0kts
21-Jun-20 19:26 36.741573 -108.217342 296 5506ft 11kts
21-Jun-20 19:27 36.740305 -108.242643 272 5799ft 117kts
21-Jun-20 19:28 36.708872 -108.254977 134 6785ft 156kts
21-Jun-20 19:29 36.680027 -108.214053 138 7708ft 162kts
21-Jun-20 19:30 36.646022 -108.177306 158 8675ft 158kts
21-Jun-20 19:31 36.607486 -108.187262 211 9660ft 141kts
21-Jun-20 19:32 36.571848 -108.181051 134 10479ft 157kts
21-Jun-20 19:33 36.539622 -108.142322 139 11009ft 175kts
21-Jun-20 19:34 36.499817 -108.098925 140 11001ft 199kts
21-Jun-20 19:35 36.456967 -108.052887 140 11000ft 207kts
21-Jun-20 19:36 36.413087 -108.005899 140 10998ft 209kts
21-Jun-20 19:37 36.369003 -107.958764 140 11000ft 209kts
21-Jun-20 19:38 36.324896 -107.911676 140 10999ft 210kts
21-Jun-20 19:39 36.280547 -107.864411 140 11003ft 210kts
21-Jun-20 19:40 36.236284 -107.817315 140 10999ft 210kts
21-Jun-20 19:41 36.192025 -107.770293 140 11002ft 209kts
21-Jun-20 19:42 36.147579 -107.723145 140 11007ft 210kts
21-Jun-20 19:43 36.103177 -107.676136 140 10953ft 212kts
21-Jun-20 19:44 36.058575 -107.628937 140 10980ft 209kts
21-Jun-20 19:45 36.014500 -107.582403 140 11014ft 208kts
21-Jun-20 19:46 35.970331 -107.535856 140 11030ft 209kts
21-Jun-20 19:47 35.926107 -107.489306 140 11018ft 209kts
21-Jun-20 19:48 35.881699 -107.442627 140 10994ft 208kts
21-Jun-20 19:49 35.835719 -107.404140 149 10972ft 190kts
21-Jun-20 19:50 35.792464 -107.371570 149 10959ft 177kts
21-Jun-20 19:51 35.750835 -107.340352 151 10944ft 172kts
21-Jun-20 19:52 35.710166 -107.309923 150 10930ft 170kts
21-Jun-20 19:53 35.668890 -107.279096 150 10922ft 180kts
21-Jun-20 19:54 35.624881 -107.246368 148 10927ft 188kts
21-Jun-20 19:55 35.579338 -107.212285 148 10927ft 194kts
21-Jun-20 19:56 35.534141 -107.178633 148 10923ft 183kts
21-Jun-20 19:57 35.492804 -107.147860 148 10925ft 168kts
21-Jun-20 19:58 35.451892 -107.117473 149 10925ft 172kts
21-Jun-20 19:59 35.411634 -107.087598 148 10925ft 167kts
21-Jun-20 20:00 35.372216 -107.058379 148 10926ft 165kts
21-Jun-20 20:01 35.331421 -107.031204 153 10651ft 170kts
21-Jun-20 20:02 35.287771 -107.003426 153 9973ft 180kts
21-Jun-20 20:03 35.242993 -106.974968 153 9279ft 180kts
21-Jun-20 20:04 35.200879 -106.948197 153 8923ft 161kts
21-Jun-20 20:05 35.162814 -106.924071 153 8926ft 150kts
21-Jun-20 20:06 35.126236 -106.900901 153 8927ft 146kts
21-Jun-20 20:07 35.092370 -106.873107 136 8752ft 155kts
21-Jun-20 20:08 35.059725 -106.834932 135 8425ft 160kts
21-Jun-20 20:09 35.025155 -106.800701 145 8047ft 169kts
21-Jun-20 20:10 34.988914 -106.770458 145 7893ft 143kts
21-Jun-20 20:11 34.966700 -106.731483 96 6937ft 141kts
21-Jun-20 20:12 34.972313 -106.693827 53 6362ft 80kts
21-Jun-20 20:13 34.988347 -106.672398 47 5993ft 90kts
21-Jun-20 20:14 35.005750 -106.650896 44 5554ft 87kts
21-Jun-20 20:15 35.023192 -106.629469 45 5388ft 91kts
21-Jun-20 20:16 35.030304 -106.622339 323 5357ft 2kts
21-Jun-20 20:17 35.031744 -106.621291 44 5357ft 10kts
21-Jun-20 20:18 35.034031 -106.618524 31 5357ft 12kts

Navigation Log

Ident Type
Flight plan parsing failed, navigation log unavailable